<?xml version="1.0" encoding="UTF-8" standalone="no" ?>
<gpx xmlns="http://www.topografix.com/GPX/1/1" creator="OruxMaps v.10.7.2 GP" version="1.1" xmlns:gpxtpx="http://www.garmin.com/xmlschemas/TrackPointExtension/v2" xmlns:xsi="http://www.w3.org/2001/XMLSchema-instance" xmlns:om="http://www.oruxmaps.com/oruxmapsextensions/1/0" xsi:schemaLocation="http://www.topografix.com/GPX/1/1 http://www.topografix.com/GPX/1/1/gpx.xsd">
<!-- owner: b9c65f69f0f6d0 -->
<metadata>
<name><![CDATA[2024-08-25 09:42:39]]></name>
<link href="https://www.oruxmaps.com">
<text>OruxMaps GP</text>
</link>
<time>2024-08-25T07:42:39.540Z</time><bounds maxlat="41.7959217" maxlon="13.7836967" minlat="41.7858533" minlon="13.7576983"/>
</metadata>
<wpt lat="41.7952233" lon="13.7836250">
<ele>1182.86</ele>
<time>2024-08-25T07:42:49.912Z</time>
<name><![CDATA[]]></name>
<sym>Waypoint</sym>
<type>Punto iniziale</type>
<extensions>
<om:oruxmapsextensions>
<om:ext type="ICON" subtype="0">38</om:ext>
</om:oruxmapsextensions>
</extensions>
</wpt>
<wpt lat="41.7951167" lon="13.7834700">
<ele>1174.53</ele>
<time>2024-08-25T11:15:34.717Z</time>
<name><![CDATA[]]></name>
<desc><![CDATA[<p><br /><h3>Nome: Segment: 1</h3><br />Tipo: Non definito<br/>Orario inizio: 09:42 25 Ago 2024<br/>Orario fine: 13:13 25 Ago 2024<br/>Distanza: 6,5km (03:30)<br/>Tempo movimento: 02:15<br/>Velocità media: 1,86 km/h<br/>Velocità in movimento: 2,89 km/h<br/>Velocità max: 6,16 km/h<br/>Altitudine minima: 1148 m<br/>Altitudine massima: 1329 m<br/>Velocità di salita: 210,0 m/h<br/>Velocità in discesa: 216,3 m/h<br/>Dislivello positivo: 214 m<br/>Dislivello negativo: 230 m<br/>Tempo di salita: 01:01<br/>Tempo di discesa: 01:03<br/></p>]]></desc>
<sym>Waypoint</sym>
<type>Punto finale</type>
<extensions>
<om:oruxmapsextensions>
<om:ext type="ICON" subtype="0">15</om:ext>
</om:oruxmapsextensions>
</extensions>
</wpt>
<trk>
<name><![CDATA[2024-08-25 09:42:39]]></name>
<desc><![CDATA[<p>Tipo: Non definito<br/>Orario inizio: 09:42 25 Ago 2024<br/>Orario fine: 13:13 25 Ago 2024<br/>Distanza: 6,5 km (03:30)<br/>Tempo movimento: 02:15<br/>Velocità media: 1,86 km/h<br/>Velocità in movimento: 2,89 km/h<br/>Velocità max: 6,16 km/h<br/>Altitudine minima: 1148 m<br/>Altitudine massima: 1329 m<br/>Velocità di salita: 210,0 m/h<br/>Velocità in discesa: 216,3 m/h<br/>Dislivello positivo: 214 m<br/>Dislivello negativo: 230 m<br/>Tempo di salita: 01:01<br/>Tempo di discesa: 01:03<br/></p><hr align="center" width="480" style="height: 2px; width: 517px"/>]]></desc>
<type>Non definito</type>
<extensions>
<om:oruxmapsextensions>
<om:ext type="TYPE" subtype="0">0</om:ext>
<om:ext type="DIFFICULTY">0</om:ext>
</om:oruxmapsextensions>
</extensions>
<trkseg>
<trkpt lat="41.7952233" lon="13.7836250">
<ele>1182.86</ele>
<time>2024-08-25T07:42:49.893Z</time>
</trkpt>
<trkpt lat="41.7952300" lon="13.7835317">
<ele>1189.34</ele>
<time>2024-08-25T07:43:00.000Z</time>
</trkpt>
<trkpt lat="41.7951933" lon="13.7832867">
<ele>1162.51</ele>
<time>2024-08-25T07:43:24.000Z</time>
</trkpt>
<trkpt lat="41.7953200" lon="13.7830850">
<ele>1159.71</ele>
<time>2024-08-25T07:44:01.000Z</time>
</trkpt>
<trkpt lat="41.7951850" lon="13.7829250">
<ele>1156.34</ele>
<time>2024-08-25T07:44:29.000Z</time>
</trkpt>
<trkpt lat="41.7950333" lon="13.7830867">
<ele>1150.12</ele>
<time>2024-08-25T07:44:50.000Z</time>
</trkpt>
<trkpt lat="41.7948817" lon="13.7832267">
<ele>1148.72</ele>
<time>2024-08-25T07:45:06.000Z</time>
</trkpt>
<trkpt lat="41.7947467" lon="13.7830550">
<ele>1146.51</ele>
<time>2024-08-25T07:45:30.000Z</time>
</trkpt>
<trkpt lat="41.7946667" lon="13.7828250">
<ele>1154.31</ele>
<time>2024-08-25T07:46:02.000Z</time>
</trkpt>
<trkpt lat="41.7945950" lon="13.7825967">
<ele>1157.11</ele>
<time>2024-08-25T07:46:18.000Z</time>
</trkpt>
<trkpt lat="41.7945417" lon="13.7823550">
<ele>1163.63</ele>
<time>2024-08-25T07:46:38.000Z</time>
</trkpt>
<trkpt lat="41.7945200" lon="13.7821000">
<ele>1168.00</ele>
<time>2024-08-25T07:46:57.000Z</time>
</trkpt>
<trkpt lat="41.7944650" lon="13.7818583">
<ele>1169.00</ele>
<time>2024-08-25T07:47:16.000Z</time>
</trkpt>
<trkpt lat="41.7944133" lon="13.7816183">
<ele>1168.68</ele>
<time>2024-08-25T07:47:35.000Z</time>
</trkpt>
<trkpt lat="41.7943383" lon="13.7813883">
<ele>1168.59</ele>
<time>2024-08-25T07:47:56.000Z</time>
</trkpt>
<trkpt lat="41.7942767" lon="13.7811617">
<ele>1169.56</ele>
<time>2024-08-25T07:48:14.000Z</time>
</trkpt>
<trkpt lat="41.7942100" lon="13.7809283">
<ele>1170.82</ele>
<time>2024-08-25T07:48:32.000Z</time>
</trkpt>
<trkpt lat="41.7941483" lon="13.7806933">
<ele>1170.40</ele>
<time>2024-08-25T07:48:50.000Z</time>
</trkpt>
<trkpt lat="41.7941450" lon="13.7804450">
<ele>1172.74</ele>
<time>2024-08-25T07:50:11.000Z</time>
</trkpt>
<trkpt lat="41.7942500" lon="13.7802417">
<ele>1173.21</ele>
<time>2024-08-25T07:50:47.000Z</time>
</trkpt>
<trkpt lat="41.7943717" lon="13.7800600">
<ele>1176.94</ele>
<time>2024-08-25T07:51:10.000Z</time>
</trkpt>
<trkpt lat="41.7944767" lon="13.7798550">
<ele>1182.64</ele>
<time>2024-08-25T07:51:34.000Z</time>
</trkpt>
<trkpt lat="41.7946500" lon="13.7797600">
<ele>1184.53</ele>
<time>2024-08-25T07:52:01.000Z</time>
</trkpt>
<trkpt lat="41.7948150" lon="13.7796367">
<ele>1187.09</ele>
<time>2024-08-25T07:52:31.000Z</time>
</trkpt>
<trkpt lat="41.7949850" lon="13.7795550">
<ele>1189.41</ele>
<time>2024-08-25T07:52:58.000Z</time>
</trkpt>
<trkpt lat="41.7951650" lon="13.7795783">
<ele>1190.58</ele>
<time>2024-08-25T07:53:20.000Z</time>
</trkpt>
<trkpt lat="41.7953450" lon="13.7795600">
<ele>1195.59</ele>
<time>2024-08-25T07:53:48.000Z</time>
</trkpt>
<trkpt lat="41.7955250" lon="13.7795433">
<ele>1196.77</ele>
<time>2024-08-25T07:54:13.000Z</time>
</trkpt>
<trkpt lat="41.7957000" lon="13.7796017">
<ele>1196.59</ele>
<time>2024-08-25T07:55:06.000Z</time>
</trkpt>
<trkpt lat="41.7958350" lon="13.7797667">
<ele>1199.23</ele>
<time>2024-08-25T07:55:33.000Z</time>
</trkpt>
<trkpt lat="41.7958883" lon="13.7795283">
<ele>1204.50</ele>
<time>2024-08-25T07:57:48.000Z</time>
</trkpt>
<trkpt lat="41.7959217" lon="13.7792883">
<ele>1205.78</ele>
<time>2024-08-25T07:58:24.000Z</time>
</trkpt>
<trkpt lat="41.7959067" lon="13.7790467">
<ele>1205.14</ele>
<time>2024-08-25T07:58:53.000Z</time>
</trkpt>
<trkpt lat="41.7958533" lon="13.7788083">
<ele>1210.27</ele>
<time>2024-08-25T07:59:21.000Z</time>
</trkpt>
<trkpt lat="41.7957117" lon="13.7786550">
<ele>1211.81</ele>
<time>2024-08-25T07:59:49.000Z</time>
</trkpt>
<trkpt lat="41.7955367" lon="13.7785900">
<ele>1214.36</ele>
<time>2024-08-25T08:00:12.000Z</time>
</trkpt>
<trkpt lat="41.7953550" lon="13.7785450">
<ele>1215.75</ele>
<time>2024-08-25T08:00:45.000Z</time>
</trkpt>
<trkpt lat="41.7951717" lon="13.7784933">
<ele>1217.05</ele>
<time>2024-08-25T08:01:23.000Z</time>
</trkpt>
<trkpt lat="41.7949850" lon="13.7784783">
<ele>1218.71</ele>
<time>2024-08-25T08:01:45.000Z</time>
</trkpt>
<trkpt lat="41.7949017" lon="13.7782583">
<ele>1226.38</ele>
<time>2024-08-25T08:02:48.000Z</time>
</trkpt>
<trkpt lat="41.7948250" lon="13.7780317">
<ele>1225.91</ele>
<time>2024-08-25T08:03:12.000Z</time>
</trkpt>
<trkpt lat="41.7947533" lon="13.7778067">
<ele>1227.96</ele>
<time>2024-08-25T08:03:39.000Z</time>
</trkpt>
<trkpt lat="41.7945867" lon="13.7776900">
<ele>1231.00</ele>
<time>2024-08-25T08:04:02.000Z</time>
</trkpt>
<trkpt lat="41.7944050" lon="13.7777083">
<ele>1234.26</ele>
<time>2024-08-25T08:04:41.000Z</time>
</trkpt>
<trkpt lat="41.7942483" lon="13.7775883">
<ele>1238.74</ele>
<time>2024-08-25T08:08:53.000Z</time>
</trkpt>
<trkpt lat="41.7942150" lon="13.7773500">
<ele>1239.92</ele>
<time>2024-08-25T08:09:21.000Z</time>
</trkpt>
<trkpt lat="41.7942000" lon="13.7771067">
<ele>1243.48</ele>
<time>2024-08-25T08:09:50.000Z</time>
</trkpt>
<trkpt lat="41.7941783" lon="13.7768567">
<ele>1244.29</ele>
<time>2024-08-25T08:10:16.000Z</time>
</trkpt>
<trkpt lat="41.7941450" lon="13.7766150">
<ele>1249.41</ele>
<time>2024-08-25T08:10:42.000Z</time>
</trkpt>
<trkpt lat="41.7940950" lon="13.7763783">
<ele>1252.67</ele>
<time>2024-08-25T08:11:07.000Z</time>
</trkpt>
<trkpt lat="41.7940817" lon="13.7761333">
<ele>1254.45</ele>
<time>2024-08-25T08:11:36.000Z</time>
</trkpt>
<trkpt lat="41.7940783" lon="13.7758850">
<ele>1259.98</ele>
<time>2024-08-25T08:12:19.000Z</time>
</trkpt>
<trkpt lat="41.7941150" lon="13.7756417">
<ele>1260.30</ele>
<time>2024-08-25T08:12:45.000Z</time>
</trkpt>
<trkpt lat="41.7941983" lon="13.7754217">
<ele>1264.85</ele>
<time>2024-08-25T08:13:15.000Z</time>
</trkpt>
<trkpt lat="41.7942583" lon="13.7751933">
<ele>1262.94</ele>
<time>2024-08-25T08:13:43.000Z</time>
</trkpt>
<trkpt lat="41.7943017" lon="13.7749583">
<ele>1266.91</ele>
<time>2024-08-25T08:14:08.000Z</time>
</trkpt>
<trkpt lat="41.7943083" lon="13.7747167">
<ele>1267.88</ele>
<time>2024-08-25T08:14:45.000Z</time>
</trkpt>
<trkpt lat="41.7943317" lon="13.7744767">
<ele>1271.89</ele>
<time>2024-08-25T08:15:11.000Z</time>
</trkpt>
<trkpt lat="41.7943900" lon="13.7742483">
<ele>1272.27</ele>
<time>2024-08-25T08:16:38.000Z</time>
</trkpt>
<trkpt lat="41.7943000" lon="13.7740367">
<ele>1269.91</ele>
<time>2024-08-25T08:17:03.000Z</time>
</trkpt>
<trkpt lat="41.7942267" lon="13.7738100">
<ele>1272.74</ele>
<time>2024-08-25T08:17:41.000Z</time>
</trkpt>
<trkpt lat="41.7942100" lon="13.7735633">
<ele>1275.88</ele>
<time>2024-08-25T08:18:28.000Z</time>
</trkpt>
<trkpt lat="41.7942433" lon="13.7733250">
<ele>1278.24</ele>
<time>2024-08-25T08:18:51.000Z</time>
</trkpt>
<trkpt lat="41.7942000" lon="13.7730767">
<ele>1279.56</ele>
<time>2024-08-25T08:19:14.000Z</time>
</trkpt>
<trkpt lat="41.7942617" lon="13.7728400">
<ele>1281.80</ele>
<time>2024-08-25T08:19:41.000Z</time>
</trkpt>
<trkpt lat="41.7942133" lon="13.7726033">
<ele>1290.10</ele>
<time>2024-08-25T08:20:15.000Z</time>
</trkpt>
<trkpt lat="41.7941967" lon="13.7723367">
<ele>1291.82</ele>
<time>2024-08-25T08:20:58.000Z</time>
</trkpt>
<trkpt lat="41.7941233" lon="13.7721117">
<ele>1288.48</ele>
<time>2024-08-25T08:21:31.000Z</time>
</trkpt>
<trkpt lat="41.7940300" lon="13.7719000">
<ele>1285.20</ele>
<time>2024-08-25T08:21:56.000Z</time>
</trkpt>
<trkpt lat="41.7939967" lon="13.7716550">
<ele>1288.32</ele>
<time>2024-08-25T08:22:22.000Z</time>
</trkpt>
<trkpt lat="41.7939567" lon="13.7714133">
<ele>1288.43</ele>
<time>2024-08-25T08:22:43.000Z</time>
</trkpt>
<trkpt lat="41.7938883" lon="13.7711817">
<ele>1291.54</ele>
<time>2024-08-25T08:23:19.000Z</time>
</trkpt>
<trkpt lat="41.7938283" lon="13.7709517">
<ele>1291.14</ele>
<time>2024-08-25T08:23:43.000Z</time>
</trkpt>
<trkpt lat="41.7937583" lon="13.7707217">
<ele>1299.54</ele>
<time>2024-08-25T08:24:10.000Z</time>
</trkpt>
<trkpt lat="41.7936767" lon="13.7705067">
<ele>1296.70</ele>
<time>2024-08-25T08:24:32.000Z</time>
</trkpt>
<trkpt lat="41.7935833" lon="13.7702967">
<ele>1297.72</ele>
<time>2024-08-25T08:25:29.000Z</time>
</trkpt>
<trkpt lat="41.7935383" lon="13.7700600">
<ele>1301.58</ele>
<time>2024-08-25T08:25:53.000Z</time>
</trkpt>
<trkpt lat="41.7934933" lon="13.7698250">
<ele>1304.27</ele>
<time>2024-08-25T08:26:45.000Z</time>
</trkpt>
<trkpt lat="41.7934483" lon="13.7695867">
<ele>1311.23</ele>
<time>2024-08-25T08:27:13.000Z</time>
</trkpt>
<trkpt lat="41.7933650" lon="13.7693617">
<ele>1307.05</ele>
<time>2024-08-25T08:27:41.000Z</time>
</trkpt>
<trkpt lat="41.7932683" lon="13.7691550">
<ele>1311.05</ele>
<time>2024-08-25T08:28:12.000Z</time>
</trkpt>
<trkpt lat="41.7931517" lon="13.7689683">
<ele>1314.19</ele>
<time>2024-08-25T08:28:36.000Z</time>
</trkpt>
<trkpt lat="41.7930767" lon="13.7687483">
<ele>1313.71</ele>
<time>2024-08-25T08:29:38.000Z</time>
</trkpt>
<trkpt lat="41.7929117" lon="13.7686367">
<ele>1312.45</ele>
<time>2024-08-25T08:31:47.000Z</time>
</trkpt>
<trkpt lat="41.7927483" lon="13.7685083">
<ele>1309.46</ele>
<time>2024-08-25T08:32:07.000Z</time>
</trkpt>
<trkpt lat="41.7925633" lon="13.7684983">
<ele>1315.10</ele>
<time>2024-08-25T08:32:59.000Z</time>
</trkpt>
<trkpt lat="41.7923817" lon="13.7685217">
<ele>1314.97</ele>
<time>2024-08-25T08:33:22.000Z</time>
</trkpt>
<trkpt lat="41.7922217" lon="13.7686417">
<ele>1320.08</ele>
<time>2024-08-25T08:33:42.000Z</time>
</trkpt>
<trkpt lat="41.7920417" lon="13.7686683">
<ele>1326.80</ele>
<time>2024-08-25T08:34:04.000Z</time>
</trkpt>
<trkpt lat="41.7918700" lon="13.7687500">
<ele>1323.19</ele>
<time>2024-08-25T08:34:27.000Z</time>
</trkpt>
<trkpt lat="41.7916867" lon="13.7687267">
<ele>1327.37</ele>
<time>2024-08-25T08:34:54.000Z</time>
</trkpt>
<trkpt lat="41.7915733" lon="13.7685367">
<ele>1321.49</ele>
<time>2024-08-25T08:35:17.000Z</time>
</trkpt>
<trkpt lat="41.7915167" lon="13.7683000">
<ele>1323.64</ele>
<time>2024-08-25T08:35:37.000Z</time>
</trkpt>
<trkpt lat="41.7915200" lon="13.7680517">
<ele>1325.08</ele>
<time>2024-08-25T08:36:01.000Z</time>
</trkpt>
<trkpt lat="41.7914817" lon="13.7678083">
<ele>1323.52</ele>
<time>2024-08-25T08:36:18.000Z</time>
</trkpt>
<trkpt lat="41.7914117" lon="13.7675833">
<ele>1323.76</ele>
<time>2024-08-25T08:36:37.000Z</time>
</trkpt>
<trkpt lat="41.7913000" lon="13.7673883">
<ele>1318.18</ele>
<time>2024-08-25T08:36:54.000Z</time>
</trkpt>
<trkpt lat="41.7911183" lon="13.7673233">
<ele>1317.48</ele>
<time>2024-08-25T08:37:19.000Z</time>
</trkpt>
<trkpt lat="41.7909833" lon="13.7671600">
<ele>1322.90</ele>
<time>2024-08-25T08:37:39.000Z</time>
</trkpt>
<trkpt lat="41.7908017" lon="13.7671233">
<ele>1326.05</ele>
<time>2024-08-25T08:37:59.000Z</time>
</trkpt>
<trkpt lat="41.7906583" lon="13.7669733">
<ele>1317.58</ele>
<time>2024-08-25T08:38:22.000Z</time>
</trkpt>
<trkpt lat="41.7904883" lon="13.7668583">
<ele>1326.67</ele>
<time>2024-08-25T08:43:27.000Z</time>
</trkpt>
<trkpt lat="41.7903683" lon="13.7666633">
<ele>1316.06</ele>
<time>2024-08-25T08:43:50.000Z</time>
</trkpt>
<trkpt lat="41.7902383" lon="13.7664917">
<ele>1313.16</ele>
<time>2024-08-25T08:44:12.000Z</time>
</trkpt>
<trkpt lat="41.7901217" lon="13.7662967">
<ele>1314.28</ele>
<time>2024-08-25T08:44:37.000Z</time>
</trkpt>
<trkpt lat="41.7899850" lon="13.7661333">
<ele>1309.33</ele>
<time>2024-08-25T08:44:58.000Z</time>
</trkpt>
<trkpt lat="41.7899783" lon="13.7658917">
<ele>1311.45</ele>
<time>2024-08-25T08:45:28.000Z</time>
</trkpt>
<trkpt lat="41.7898267" lon="13.7657333">
<ele>1318.37</ele>
<time>2024-08-25T08:46:01.000Z</time>
</trkpt>
<trkpt lat="41.7898200" lon="13.7660083">
<ele>1307.15</ele>
<time>2024-08-25T08:47:24.000Z</time>
</trkpt>
<trkpt lat="41.7896633" lon="13.7658767">
<ele>1318.21</ele>
<time>2024-08-25T08:50:07.000Z</time>
</trkpt>
<trkpt lat="41.7895133" lon="13.7657267">
<ele>1315.99</ele>
<time>2024-08-25T08:50:35.000Z</time>
</trkpt>
<trkpt lat="41.7893367" lon="13.7656550">
<ele>1323.39</ele>
<time>2024-08-25T08:50:58.000Z</time>
</trkpt>
<trkpt lat="41.7891917" lon="13.7655000">
<ele>1314.38</ele>
<time>2024-08-25T08:51:28.000Z</time>
</trkpt>
<trkpt lat="41.7891483" lon="13.7652633">
<ele>1313.25</ele>
<time>2024-08-25T08:51:55.000Z</time>
</trkpt>
<trkpt lat="41.7891217" lon="13.7650167">
<ele>1314.91</ele>
<time>2024-08-25T08:52:14.000Z</time>
</trkpt>
<trkpt lat="41.7890733" lon="13.7647783">
<ele>1314.39</ele>
<time>2024-08-25T08:52:34.000Z</time>
</trkpt>
<trkpt lat="41.7889883" lon="13.7645483">
<ele>1313.39</ele>
<time>2024-08-25T08:52:54.000Z</time>
</trkpt>
<trkpt lat="41.7888967" lon="13.7643333">
<ele>1313.50</ele>
<time>2024-08-25T08:53:16.000Z</time>
</trkpt>
<trkpt lat="41.7887383" lon="13.7642000">
<ele>1313.27</ele>
<time>2024-08-25T08:53:34.000Z</time>
</trkpt>
<trkpt lat="41.7887550" lon="13.7639550">
<ele>1318.06</ele>
<time>2024-08-25T08:54:01.000Z</time>
</trkpt>
<trkpt lat="41.7887550" lon="13.7637033">
<ele>1312.73</ele>
<time>2024-08-25T08:54:21.000Z</time>
</trkpt>
<trkpt lat="41.7887683" lon="13.7634517">
<ele>1307.35</ele>
<time>2024-08-25T08:54:43.000Z</time>
</trkpt>
<trkpt lat="41.7887600" lon="13.7632083">
<ele>1313.02</ele>
<time>2024-08-25T08:55:07.000Z</time>
</trkpt>
<trkpt lat="41.7888000" lon="13.7629700">
<ele>1312.61</ele>
<time>2024-08-25T08:55:31.000Z</time>
</trkpt>
<trkpt lat="41.7888133" lon="13.7627217">
<ele>1311.53</ele>
<time>2024-08-25T08:55:53.000Z</time>
</trkpt>
<trkpt lat="41.7888833" lon="13.7624950">
<ele>1312.83</ele>
<time>2024-08-25T08:56:13.000Z</time>
</trkpt>
<trkpt lat="41.7889017" lon="13.7622433">
<ele>1314.30</ele>
<time>2024-08-25T08:56:34.000Z</time>
</trkpt>
<trkpt lat="41.7889000" lon="13.7619967">
<ele>1316.21</ele>
<time>2024-08-25T08:56:55.000Z</time>
</trkpt>
<trkpt lat="41.7889167" lon="13.7617517">
<ele>1312.10</ele>
<time>2024-08-25T08:57:31.000Z</time>
</trkpt>
<trkpt lat="41.7889283" lon="13.7615050">
<ele>1315.72</ele>
<time>2024-08-25T08:57:53.000Z</time>
</trkpt>
<trkpt lat="41.7890133" lon="13.7612850">
<ele>1314.88</ele>
<time>2024-08-25T08:58:12.000Z</time>
</trkpt>
<trkpt lat="41.7890367" lon="13.7610367">
<ele>1315.33</ele>
<time>2024-08-25T08:58:31.000Z</time>
</trkpt>
<trkpt lat="41.7890217" lon="13.7607950">
<ele>1316.40</ele>
<time>2024-08-25T08:59:06.000Z</time>
</trkpt>
<trkpt lat="41.7890100" lon="13.7605500">
<ele>1318.07</ele>
<time>2024-08-25T08:59:28.000Z</time>
</trkpt>
<trkpt lat="41.7890133" lon="13.7603083">
<ele>1318.67</ele>
<time>2024-08-25T08:59:49.000Z</time>
</trkpt>
<trkpt lat="41.7889750" lon="13.7600683">
<ele>1318.60</ele>
<time>2024-08-25T09:00:42.000Z</time>
</trkpt>
<trkpt lat="41.7888933" lon="13.7598467">
<ele>1319.03</ele>
<time>2024-08-25T09:01:28.000Z</time>
</trkpt>
<trkpt lat="41.7888517" lon="13.7596083">
<ele>1320.58</ele>
<time>2024-08-25T09:01:51.000Z</time>
</trkpt>
<trkpt lat="41.7888450" lon="13.7593617">
<ele>1321.45</ele>
<time>2024-08-25T09:02:11.000Z</time>
</trkpt>
<trkpt lat="41.7888050" lon="13.7591200">
<ele>1323.11</ele>
<time>2024-08-25T09:02:31.000Z</time>
</trkpt>
<trkpt lat="41.7887500" lon="13.7588900">
<ele>1325.41</ele>
<time>2024-08-25T09:02:51.000Z</time>
</trkpt>
<trkpt lat="41.7887083" lon="13.7586517">
<ele>1324.41</ele>
<time>2024-08-25T09:03:09.000Z</time>
</trkpt>
<trkpt lat="41.7886867" lon="13.7584050">
<ele>1324.64</ele>
<time>2024-08-25T09:03:42.000Z</time>
</trkpt>
<trkpt lat="41.7886200" lon="13.7581733">
<ele>1325.68</ele>
<time>2024-08-25T09:04:32.000Z</time>
</trkpt>
<trkpt lat="41.7885433" lon="13.7579550">
<ele>1325.77</ele>
<time>2024-08-25T09:04:50.000Z</time>
</trkpt>
<trkpt lat="41.7885417" lon="13.7576983">
<ele>1324.61</ele>
<time>2024-08-25T09:05:11.000Z</time>
</trkpt>
<trkpt lat="41.7883650" lon="13.7577450">
<ele>1328.53</ele>
<time>2024-08-25T09:07:24.000Z</time>
</trkpt>
<trkpt lat="41.7882967" lon="13.7579683">
<ele>1329.25</ele>
<time>2024-08-25T09:07:44.000Z</time>
</trkpt>
<trkpt lat="41.7881633" lon="13.7581317">
<ele>1330.66</ele>
<time>2024-08-25T09:08:03.000Z</time>
</trkpt>
<trkpt lat="41.7881033" lon="13.7583633">
<ele>1326.01</ele>
<time>2024-08-25T09:08:22.000Z</time>
</trkpt>
<trkpt lat="41.7881300" lon="13.7586050">
<ele>1321.04</ele>
<time>2024-08-25T09:08:40.000Z</time>
</trkpt>
<trkpt lat="41.7882283" lon="13.7588100">
<ele>1320.12</ele>
<time>2024-08-25T09:08:58.000Z</time>
</trkpt>
<trkpt lat="41.7883300" lon="13.7590200">
<ele>1318.52</ele>
<time>2024-08-25T09:09:19.000Z</time>
</trkpt>
<trkpt lat="41.7883767" lon="13.7592617">
<ele>1318.52</ele>
<time>2024-08-25T09:09:37.000Z</time>
</trkpt>
<trkpt lat="41.7883717" lon="13.7595133">
<ele>1317.35</ele>
<time>2024-08-25T09:09:55.000Z</time>
</trkpt>
<trkpt lat="41.7884117" lon="13.7597650">
<ele>1316.18</ele>
<time>2024-08-25T09:10:13.000Z</time>
</trkpt>
<trkpt lat="41.7884700" lon="13.7599967">
<ele>1316.36</ele>
<time>2024-08-25T09:10:31.000Z</time>
</trkpt>
<trkpt lat="41.7884900" lon="13.7602417">
<ele>1315.12</ele>
<time>2024-08-25T09:10:52.000Z</time>
</trkpt>
<trkpt lat="41.7884850" lon="13.7604883">
<ele>1315.83</ele>
<time>2024-08-25T09:11:25.000Z</time>
</trkpt>
<trkpt lat="41.7884950" lon="13.7607300">
<ele>1314.44</ele>
<time>2024-08-25T09:11:44.000Z</time>
</trkpt>
<trkpt lat="41.7885017" lon="13.7609750">
<ele>1312.92</ele>
<time>2024-08-25T09:14:18.000Z</time>
</trkpt>
<trkpt lat="41.7884483" lon="13.7612100">
<ele>1313.47</ele>
<time>2024-08-25T09:14:38.000Z</time>
</trkpt>
<trkpt lat="41.7883550" lon="13.7614267">
<ele>1311.54</ele>
<time>2024-08-25T09:15:25.000Z</time>
</trkpt>
<trkpt lat="41.7882250" lon="13.7615967">
<ele>1309.70</ele>
<time>2024-08-25T09:15:52.000Z</time>
</trkpt>
<trkpt lat="41.7881083" lon="13.7617900">
<ele>1307.04</ele>
<time>2024-08-25T09:16:27.000Z</time>
</trkpt>
<trkpt lat="41.7880417" lon="13.7620183">
<ele>1307.62</ele>
<time>2024-08-25T09:16:51.000Z</time>
</trkpt>
<trkpt lat="41.7879600" lon="13.7622450">
<ele>1304.80</ele>
<time>2024-08-25T09:17:10.000Z</time>
</trkpt>
<trkpt lat="41.7879833" lon="13.7624917">
<ele>1306.41</ele>
<time>2024-08-25T09:17:33.000Z</time>
</trkpt>
<trkpt lat="41.7879567" lon="13.7627367">
<ele>1305.32</ele>
<time>2024-08-25T09:18:00.000Z</time>
</trkpt>
<trkpt lat="41.7878933" lon="13.7629667">
<ele>1304.26</ele>
<time>2024-08-25T09:18:20.000Z</time>
</trkpt>
<trkpt lat="41.7878900" lon="13.7632083">
<ele>1302.47</ele>
<time>2024-08-25T09:18:41.000Z</time>
</trkpt>
<trkpt lat="41.7878433" lon="13.7634433">
<ele>1299.10</ele>
<time>2024-08-25T09:19:16.000Z</time>
</trkpt>
<trkpt lat="41.7878483" lon="13.7636900">
<ele>1304.48</ele>
<time>2024-08-25T09:19:36.000Z</time>
</trkpt>
<trkpt lat="41.7878300" lon="13.7639317">
<ele>1299.99</ele>
<time>2024-08-25T09:20:01.000Z</time>
</trkpt>
<trkpt lat="41.7878783" lon="13.7641650">
<ele>1299.08</ele>
<time>2024-08-25T09:20:30.000Z</time>
</trkpt>
<trkpt lat="41.7878900" lon="13.7644383">
<ele>1298.92</ele>
<time>2024-08-25T09:21:09.000Z</time>
</trkpt>
<trkpt lat="41.7878383" lon="13.7646733">
<ele>1304.65</ele>
<time>2024-08-25T09:21:33.000Z</time>
</trkpt>
<trkpt lat="41.7878083" lon="13.7649183">
<ele>1303.91</ele>
<time>2024-08-25T09:21:55.000Z</time>
</trkpt>
<trkpt lat="41.7877783" lon="13.7651650">
<ele>1296.56</ele>
<time>2024-08-25T09:22:16.000Z</time>
</trkpt>
<trkpt lat="41.7878533" lon="13.7653850">
<ele>1297.22</ele>
<time>2024-08-25T09:22:32.000Z</time>
</trkpt>
<trkpt lat="41.7878850" lon="13.7656267">
<ele>1296.50</ele>
<time>2024-08-25T09:22:54.000Z</time>
</trkpt>
<trkpt lat="41.7877567" lon="13.7658017">
<ele>1294.21</ele>
<time>2024-08-25T09:23:13.000Z</time>
</trkpt>
<trkpt lat="41.7876417" lon="13.7660000">
<ele>1287.97</ele>
<time>2024-08-25T09:23:42.000Z</time>
</trkpt>
<trkpt lat="41.7875600" lon="13.7662300">
<ele>1284.35</ele>
<time>2024-08-25T09:24:07.000Z</time>
</trkpt>
<trkpt lat="41.7874350" lon="13.7664200">
<ele>1283.52</ele>
<time>2024-08-25T09:24:29.000Z</time>
</trkpt>
<trkpt lat="41.7874083" lon="13.7666600">
<ele>1280.46</ele>
<time>2024-08-25T09:24:51.000Z</time>
</trkpt>
<trkpt lat="41.7874700" lon="13.7668917">
<ele>1279.24</ele>
<time>2024-08-25T09:25:15.000Z</time>
</trkpt>
<trkpt lat="41.7874100" lon="13.7671333">
<ele>1274.83</ele>
<time>2024-08-25T09:25:42.000Z</time>
</trkpt>
<trkpt lat="41.7873150" lon="13.7673450">
<ele>1274.92</ele>
<time>2024-08-25T09:26:03.000Z</time>
</trkpt>
<trkpt lat="41.7873300" lon="13.7676083">
<ele>1280.19</ele>
<time>2024-08-25T09:26:42.000Z</time>
</trkpt>
<trkpt lat="41.7872183" lon="13.7673650">
<ele>1285.78</ele>
<time>2024-08-25T09:28:29.000Z</time>
</trkpt>
<trkpt lat="41.7871100" lon="13.7675667">
<ele>1284.74</ele>
<time>2024-08-25T09:28:46.000Z</time>
</trkpt>
<trkpt lat="41.7869667" lon="13.7677183">
<ele>1283.91</ele>
<time>2024-08-25T09:29:16.000Z</time>
</trkpt>
<trkpt lat="41.7868800" lon="13.7679367">
<ele>1287.78</ele>
<time>2024-08-25T09:29:39.000Z</time>
</trkpt>
<trkpt lat="41.7867850" lon="13.7681483">
<ele>1287.05</ele>
<time>2024-08-25T09:30:01.000Z</time>
</trkpt>
<trkpt lat="41.7867167" lon="13.7683767">
<ele>1288.05</ele>
<time>2024-08-25T09:30:23.000Z</time>
</trkpt>
<trkpt lat="41.7866083" lon="13.7685700">
<ele>1287.35</ele>
<time>2024-08-25T09:30:42.000Z</time>
</trkpt>
<trkpt lat="41.7865800" lon="13.7688117">
<ele>1295.43</ele>
<time>2024-08-25T09:30:58.000Z</time>
</trkpt>
<trkpt lat="41.7864500" lon="13.7689983">
<ele>1289.54</ele>
<time>2024-08-25T09:31:19.000Z</time>
</trkpt>
<trkpt lat="41.7863850" lon="13.7692267">
<ele>1286.56</ele>
<time>2024-08-25T09:31:35.000Z</time>
</trkpt>
<trkpt lat="41.7863083" lon="13.7694567">
<ele>1287.94</ele>
<time>2024-08-25T09:31:52.000Z</time>
</trkpt>
<trkpt lat="41.7861933" lon="13.7696533">
<ele>1289.90</ele>
<time>2024-08-25T09:32:11.000Z</time>
</trkpt>
<trkpt lat="41.7861300" lon="13.7698917">
<ele>1290.90</ele>
<time>2024-08-25T09:32:28.000Z</time>
</trkpt>
<trkpt lat="41.7860983" lon="13.7701400">
<ele>1295.53</ele>
<time>2024-08-25T09:32:48.000Z</time>
</trkpt>
<trkpt lat="41.7861317" lon="13.7703850">
<ele>1290.90</ele>
<time>2024-08-25T09:33:08.000Z</time>
</trkpt>
<trkpt lat="41.7861250" lon="13.7706333">
<ele>1287.25</ele>
<time>2024-08-25T09:33:27.000Z</time>
</trkpt>
<trkpt lat="41.7861100" lon="13.7708767">
<ele>1282.95</ele>
<time>2024-08-25T09:33:54.000Z</time>
</trkpt>
<trkpt lat="41.7861483" lon="13.7711233">
<ele>1282.18</ele>
<time>2024-08-25T09:34:12.000Z</time>
</trkpt>
<trkpt lat="41.7861233" lon="13.7713633">
<ele>1280.42</ele>
<time>2024-08-25T09:34:28.000Z</time>
</trkpt>
<trkpt lat="41.7862083" lon="13.7715783">
<ele>1278.95</ele>
<time>2024-08-25T09:35:02.000Z</time>
</trkpt>
<trkpt lat="41.7862200" lon="13.7718267">
<ele>1276.00</ele>
<time>2024-08-25T09:35:17.000Z</time>
</trkpt>
<trkpt lat="41.7861750" lon="13.7720700">
<ele>1278.67</ele>
<time>2024-08-25T09:35:37.000Z</time>
</trkpt>
<trkpt lat="41.7861233" lon="13.7723100">
<ele>1274.32</ele>
<time>2024-08-25T09:35:57.000Z</time>
</trkpt>
<trkpt lat="41.7860967" lon="13.7725567">
<ele>1273.42</ele>
<time>2024-08-25T09:36:17.000Z</time>
</trkpt>
<trkpt lat="41.7859933" lon="13.7727550">
<ele>1266.95</ele>
<time>2024-08-25T09:39:02.000Z</time>
</trkpt>
<trkpt lat="41.7859433" lon="13.7729883">
<ele>1269.19</ele>
<time>2024-08-25T09:39:25.000Z</time>
</trkpt>
<trkpt lat="41.7858783" lon="13.7732133">
<ele>1276.62</ele>
<time>2024-08-25T09:39:42.000Z</time>
</trkpt>
<trkpt lat="41.7859050" lon="13.7734583">
<ele>1275.92</ele>
<time>2024-08-25T09:40:02.000Z</time>
</trkpt>
<trkpt lat="41.7858533" lon="13.7737000">
<ele>1280.56</ele>
<time>2024-08-25T09:40:23.000Z</time>
</trkpt>
<trkpt lat="41.7858917" lon="13.7739467">
<ele>1280.74</ele>
<time>2024-08-25T09:40:41.000Z</time>
</trkpt>
<trkpt lat="41.7859300" lon="13.7741833">
<ele>1282.59</ele>
<time>2024-08-25T09:41:01.000Z</time>
</trkpt>
<trkpt lat="41.7859450" lon="13.7744333">
<ele>1280.32</ele>
<time>2024-08-25T09:41:23.000Z</time>
</trkpt>
<trkpt lat="41.7859317" lon="13.7746767">
<ele>1281.29</ele>
<time>2024-08-25T09:41:41.000Z</time>
</trkpt>
<trkpt lat="41.7859500" lon="13.7749167">
<ele>1281.16</ele>
<time>2024-08-25T09:42:00.000Z</time>
</trkpt>
<trkpt lat="41.7859867" lon="13.7746733">
<ele>1276.20</ele>
<time>2024-08-25T09:44:26.000Z</time>
</trkpt>
<trkpt lat="41.7859333" lon="13.7744383">
<ele>1280.95</ele>
<time>2024-08-25T09:44:49.000Z</time>
</trkpt>
<trkpt lat="41.7858617" lon="13.7742117">
<ele>1278.25</ele>
<time>2024-08-25T09:45:10.000Z</time>
</trkpt>
<trkpt lat="41.7859100" lon="13.7739733">
<ele>1279.54</ele>
<time>2024-08-25T09:45:32.000Z</time>
</trkpt>
<trkpt lat="41.7859983" lon="13.7737583">
<ele>1276.89</ele>
<time>2024-08-25T09:45:50.000Z</time>
</trkpt>
<trkpt lat="41.7859533" lon="13.7735150">
<ele>1276.13</ele>
<time>2024-08-25T09:46:27.000Z</time>
</trkpt>
<trkpt lat="41.7859317" lon="13.7732700">
<ele>1275.07</ele>
<time>2024-08-25T09:46:45.000Z</time>
</trkpt>
<trkpt lat="41.7860167" lon="13.7730567">
<ele>1274.74</ele>
<time>2024-08-25T09:47:03.000Z</time>
</trkpt>
<trkpt lat="41.7861217" lon="13.7728600">
<ele>1273.13</ele>
<time>2024-08-25T09:47:27.000Z</time>
</trkpt>
<trkpt lat="41.7863050" lon="13.7728017">
<ele>1269.53</ele>
<time>2024-08-25T09:48:09.000Z</time>
</trkpt>
<trkpt lat="41.7863333" lon="13.7730433">
<ele>1289.16</ele>
<time>2024-08-25T10:33:29.000Z</time>
</trkpt>
<trkpt lat="41.7865017" lon="13.7731367">
<ele>1260.59</ele>
<time>2024-08-25T10:34:08.000Z</time>
</trkpt>
<trkpt lat="41.7866667" lon="13.7732517">
<ele>1258.93</ele>
<time>2024-08-25T10:34:31.000Z</time>
</trkpt>
<trkpt lat="41.7868333" lon="13.7733500">
<ele>1250.33</ele>
<time>2024-08-25T10:34:56.000Z</time>
</trkpt>
<trkpt lat="41.7869867" lon="13.7734917">
<ele>1249.94</ele>
<time>2024-08-25T10:35:21.000Z</time>
</trkpt>
<trkpt lat="41.7871233" lon="13.7736550">
<ele>1246.73</ele>
<time>2024-08-25T10:35:46.000Z</time>
</trkpt>
<trkpt lat="41.7872883" lon="13.7737550">
<ele>1248.77</ele>
<time>2024-08-25T10:36:08.000Z</time>
</trkpt>
<trkpt lat="41.7874383" lon="13.7738983">
<ele>1246.37</ele>
<time>2024-08-25T10:36:30.000Z</time>
</trkpt>
<trkpt lat="41.7876183" lon="13.7739400">
<ele>1243.03</ele>
<time>2024-08-25T10:37:14.000Z</time>
</trkpt>
<trkpt lat="41.7877767" lon="13.7738117">
<ele>1240.33</ele>
<time>2024-08-25T10:37:45.000Z</time>
</trkpt>
<trkpt lat="41.7879567" lon="13.7738767">
<ele>1238.09</ele>
<time>2024-08-25T10:38:22.000Z</time>
</trkpt>
<trkpt lat="41.7880767" lon="13.7740617">
<ele>1238.09</ele>
<time>2024-08-25T10:40:07.000Z</time>
</trkpt>
<trkpt lat="41.7881750" lon="13.7742650">
<ele>1235.88</ele>
<time>2024-08-25T10:40:45.000Z</time>
</trkpt>
<trkpt lat="41.7882767" lon="13.7744733">
<ele>1237.25</ele>
<time>2024-08-25T10:41:04.000Z</time>
</trkpt>
<trkpt lat="41.7884617" lon="13.7745500">
<ele>1240.29</ele>
<time>2024-08-25T10:41:22.000Z</time>
</trkpt>
<trkpt lat="41.7886150" lon="13.7746883">
<ele>1239.00</ele>
<time>2024-08-25T10:41:40.000Z</time>
</trkpt>
<trkpt lat="41.7887833" lon="13.7747900">
<ele>1238.15</ele>
<time>2024-08-25T10:41:54.000Z</time>
</trkpt>
<trkpt lat="41.7889033" lon="13.7749700">
<ele>1234.22</ele>
<time>2024-08-25T10:42:10.000Z</time>
</trkpt>
<trkpt lat="41.7889817" lon="13.7751883">
<ele>1234.41</ele>
<time>2024-08-25T10:42:27.000Z</time>
</trkpt>
<trkpt lat="41.7890183" lon="13.7754350">
<ele>1231.50</ele>
<time>2024-08-25T10:42:45.000Z</time>
</trkpt>
<trkpt lat="41.7890400" lon="13.7756867">
<ele>1230.96</ele>
<time>2024-08-25T10:43:02.000Z</time>
</trkpt>
<trkpt lat="41.7891333" lon="13.7759033">
<ele>1225.15</ele>
<time>2024-08-25T10:43:28.000Z</time>
</trkpt>
<trkpt lat="41.7891467" lon="13.7761483">
<ele>1217.33</ele>
<time>2024-08-25T10:43:44.000Z</time>
</trkpt>
<trkpt lat="41.7892383" lon="13.7763617">
<ele>1217.58</ele>
<time>2024-08-25T10:44:01.000Z</time>
</trkpt>
<trkpt lat="41.7893750" lon="13.7765350">
<ele>1211.22</ele>
<time>2024-08-25T10:44:21.000Z</time>
</trkpt>
<trkpt lat="41.7894317" lon="13.7767717">
<ele>1205.58</ele>
<time>2024-08-25T10:44:41.000Z</time>
</trkpt>
<trkpt lat="41.7895583" lon="13.7769433">
<ele>1207.00</ele>
<time>2024-08-25T10:44:57.000Z</time>
</trkpt>
<trkpt lat="41.7896600" lon="13.7771550">
<ele>1208.65</ele>
<time>2024-08-25T10:45:13.000Z</time>
</trkpt>
<trkpt lat="41.7897850" lon="13.7773333">
<ele>1203.88</ele>
<time>2024-08-25T10:45:37.000Z</time>
</trkpt>
<trkpt lat="41.7899383" lon="13.7774717">
<ele>1207.65</ele>
<time>2024-08-25T10:45:53.000Z</time>
</trkpt>
<trkpt lat="41.7900983" lon="13.7776050">
<ele>1205.67</ele>
<time>2024-08-25T10:46:13.000Z</time>
</trkpt>
<trkpt lat="41.7902700" lon="13.7776883">
<ele>1205.52</ele>
<time>2024-08-25T10:46:29.000Z</time>
</trkpt>
<trkpt lat="41.7904533" lon="13.7777433">
<ele>1203.04</ele>
<time>2024-08-25T10:46:45.000Z</time>
</trkpt>
<trkpt lat="41.7906350" lon="13.7778067">
<ele>1201.15</ele>
<time>2024-08-25T10:47:02.000Z</time>
</trkpt>
<trkpt lat="41.7908033" lon="13.7779217">
<ele>1198.49</ele>
<time>2024-08-25T10:47:18.000Z</time>
</trkpt>
<trkpt lat="41.7909683" lon="13.7780200">
<ele>1198.96</ele>
<time>2024-08-25T10:47:34.000Z</time>
</trkpt>
<trkpt lat="41.7911467" lon="13.7780617">
<ele>1196.55</ele>
<time>2024-08-25T10:47:50.000Z</time>
</trkpt>
<trkpt lat="41.7913283" lon="13.7781483">
<ele>1195.17</ele>
<time>2024-08-25T10:48:12.000Z</time>
</trkpt>
<trkpt lat="41.7915067" lon="13.7782217">
<ele>1193.70</ele>
<time>2024-08-25T10:48:29.000Z</time>
</trkpt>
<trkpt lat="41.7916817" lon="13.7783183">
<ele>1193.44</ele>
<time>2024-08-25T10:48:48.000Z</time>
</trkpt>
<trkpt lat="41.7918600" lon="13.7783500">
<ele>1191.30</ele>
<time>2024-08-25T10:49:03.000Z</time>
</trkpt>
<trkpt lat="41.7920317" lon="13.7784450">
<ele>1192.19</ele>
<time>2024-08-25T10:49:19.000Z</time>
</trkpt>
<trkpt lat="41.7922100" lon="13.7785450">
<ele>1190.48</ele>
<time>2024-08-25T10:49:37.000Z</time>
</trkpt>
<trkpt lat="41.7923733" lon="13.7786767">
<ele>1189.49</ele>
<time>2024-08-25T10:49:54.000Z</time>
</trkpt>
<trkpt lat="41.7925450" lon="13.7787550">
<ele>1186.84</ele>
<time>2024-08-25T10:50:10.000Z</time>
</trkpt>
<trkpt lat="41.7927167" lon="13.7788467">
<ele>1184.77</ele>
<time>2024-08-25T10:50:26.000Z</time>
</trkpt>
<trkpt lat="41.7928850" lon="13.7789383">
<ele>1184.90</ele>
<time>2024-08-25T10:50:46.000Z</time>
</trkpt>
<trkpt lat="41.7930700" lon="13.7789267">
<ele>1185.65</ele>
<time>2024-08-25T10:52:54.000Z</time>
</trkpt>
<trkpt lat="41.7932517" lon="13.7790083">
<ele>1185.72</ele>
<time>2024-08-25T10:53:12.000Z</time>
</trkpt>
<trkpt lat="41.7934217" lon="13.7791167">
<ele>1183.76</ele>
<time>2024-08-25T10:53:29.000Z</time>
</trkpt>
<trkpt lat="41.7935800" lon="13.7792417">
<ele>1180.94</ele>
<time>2024-08-25T10:53:48.000Z</time>
</trkpt>
<trkpt lat="41.7936667" lon="13.7794583">
<ele>1177.97</ele>
<time>2024-08-25T10:54:04.000Z</time>
</trkpt>
<trkpt lat="41.7937667" lon="13.7796717">
<ele>1178.01</ele>
<time>2024-08-25T10:54:20.000Z</time>
</trkpt>
<trkpt lat="41.7938333" lon="13.7799033">
<ele>1176.75</ele>
<time>2024-08-25T10:54:42.000Z</time>
</trkpt>
<trkpt lat="41.7939300" lon="13.7801167">
<ele>1177.01</ele>
<time>2024-08-25T10:55:00.000Z</time>
</trkpt>
<trkpt lat="41.7940233" lon="13.7803367">
<ele>1174.88</ele>
<time>2024-08-25T10:55:19.000Z</time>
</trkpt>
<trkpt lat="41.7941050" lon="13.7805550">
<ele>1175.81</ele>
<time>2024-08-25T10:55:36.000Z</time>
</trkpt>
<trkpt lat="41.7941733" lon="13.7807867">
<ele>1176.26</ele>
<time>2024-08-25T10:55:56.000Z</time>
</trkpt>
<trkpt lat="41.7942433" lon="13.7810217">
<ele>1175.32</ele>
<time>2024-08-25T10:56:17.000Z</time>
</trkpt>
<trkpt lat="41.7943083" lon="13.7812600">
<ele>1176.22</ele>
<time>2024-08-25T10:56:40.000Z</time>
</trkpt>
<trkpt lat="41.7943550" lon="13.7814967">
<ele>1173.82</ele>
<time>2024-08-25T10:57:02.000Z</time>
</trkpt>
<trkpt lat="41.7944300" lon="13.7817183">
<ele>1172.74</ele>
<time>2024-08-25T10:57:20.000Z</time>
</trkpt>
<trkpt lat="41.7944983" lon="13.7819567">
<ele>1172.34</ele>
<time>2024-08-25T10:57:40.000Z</time>
</trkpt>
<trkpt lat="41.7945183" lon="13.7822033">
<ele>1171.44</ele>
<time>2024-08-25T10:58:00.000Z</time>
</trkpt>
<trkpt lat="41.7945517" lon="13.7824483">
<ele>1170.30</ele>
<time>2024-08-25T10:58:20.000Z</time>
</trkpt>
<trkpt lat="41.7946050" lon="13.7826800">
<ele>1168.59</ele>
<time>2024-08-25T10:58:39.000Z</time>
</trkpt>
<trkpt lat="41.7946533" lon="13.7829233">
<ele>1166.68</ele>
<time>2024-08-25T10:58:58.000Z</time>
</trkpt>
<trkpt lat="41.7947167" lon="13.7831550">
<ele>1167.69</ele>
<time>2024-08-25T10:59:16.000Z</time>
</trkpt>
<trkpt lat="41.7947833" lon="13.7833833">
<ele>1167.48</ele>
<time>2024-08-25T10:59:34.000Z</time>
</trkpt>
<trkpt lat="41.7949667" lon="13.7834350">
<ele>1170.79</ele>
<time>2024-08-25T11:00:11.000Z</time>
</trkpt>
<trkpt lat="41.7951733" lon="13.7833333">
<ele>1164.97</ele>
<time>2024-08-25T11:00:58.000Z</time>
</trkpt>
<trkpt lat="41.7953633" lon="13.7832967">
<ele>1170.84</ele>
<time>2024-08-25T11:01:37.000Z</time>
</trkpt>
<trkpt lat="41.7951783" lon="13.7833150">
<ele>1172.76</ele>
<time>2024-08-25T11:01:53.000Z</time>
</trkpt>
<trkpt lat="41.7950067" lon="13.7833983">
<ele>1168.52</ele>
<time>2024-08-25T11:04:53.000Z</time>
</trkpt>
<trkpt lat="41.7951967" lon="13.7832750">
<ele>1167.86</ele>
<time>2024-08-25T11:05:10.000Z</time>
</trkpt>
<trkpt lat="41.7950417" lon="13.7833983">
<ele>1167.81</ele>
<time>2024-08-25T11:05:25.000Z</time>
</trkpt>
<trkpt lat="41.7951800" lon="13.7835567">
<ele>1171.52</ele>
<time>2024-08-25T11:05:37.000Z</time>
</trkpt>
<trkpt lat="41.7949400" lon="13.7836967">
<ele>1173.15</ele>
<time>2024-08-25T11:05:54.000Z</time>
</trkpt>
<trkpt lat="41.7950117" lon="13.7834317">
<ele>1175.23</ele>
<time>2024-08-25T11:06:10.000Z</time>
</trkpt>
<trkpt lat="41.7951967" lon="13.7835283">
<ele>1175.26</ele>
<time>2024-08-25T11:06:26.000Z</time>
</trkpt>
<trkpt lat="41.7950667" lon="13.7833450">
<ele>1177.02</ele>
<time>2024-08-25T11:06:50.000Z</time>
</trkpt>
<trkpt lat="41.7949167" lon="13.7835017">
<ele>1172.78</ele>
<time>2024-08-25T11:11:14.000Z</time>
</trkpt>
<trkpt lat="41.7951083" lon="13.7835300">
<ele>1172.65</ele>
<time>2024-08-25T11:11:47.000Z</time>
</trkpt>
<trkpt lat="41.7952967" lon="13.7834467">
<ele>1181.97</ele>
<time>2024-08-25T11:13:00.000Z</time>
</trkpt>
<trkpt lat="41.7951167" lon="13.7834700">
<ele>1174.53</ele>
<time>2024-08-25T11:13:07.000Z</time>
</trkpt>
<extensions>
<om:oruxmapsextensions>
<om:ext type="NAME" subtype="0"><![CDATA[Segment: 1]]></om:ext>
</om:oruxmapsextensions>
</extensions>
</trkseg>
</trk>
</gpx>
